sensor_id;sensor_type;location;lat;lon;timestamp;P1;durP1;ratioP1;P2;durP2;ratioP2
67867;SDS011;54672;46.096;14.470;2023-03-24T00:00:42;15.45;;;8.35;;
67867;SDS011;54672;46.096;14.470;2023-03-24T00:03:07;15.90;;;9.02;;
67867;SDS011;54672;46.096;14.470;2023-03-24T00:05:33;14.32;;;7.50;;
67867;SDS011;54672;46.096;14.470;2023-03-24T00:07:58;12.70;;;5.90;;
67867;SDS011;54672;46.096;14.470;2023-03-24T00:10:24;10.50;;;5.57;;
67867;SDS011;54672;46.096;14.470;2023-03-24T00:12:50;10.05;;;6.07;;
67867;SDS011;54672;46.096;14.470;2023-03-24T00:15:17;10.35;;;5.82;;
67867;SDS011;54672;46.096;14.470;2023-03-24T00:17:45;12.25;;;6.07;;
67867;SDS011;54672;46.096;14.470;2023-03-24T00:20:14;13.20;;;6.53;;
67867;SDS011;54672;46.096;14.470;2023-03-24T00:22:44;9.80;;;6.18;;
67867;SDS011;54672;46.096;14.470;2023-03-24T00:25:12;10.40;;;5.22;;
67867;SDS011;54672;46.096;14.470;2023-03-24T00:27:38;11.00;;;6.38;;
67867;SDS011;54672;46.096;14.470;2023-03-24T00:30:04;12.75;;;6.72;;
67867;SDS011;54672;46.096;14.470;2023-03-24T00:32:32;18.55;;;7.75;;
67867;SDS011;54672;46.096;14.470;2023-03-24T00:34:58;14.20;;;7.18;;
67867;SDS011;54672;46.096;14.470;2023-03-24T00:37:24;21.60;;;12.65;;
67867;SDS011;54672;46.096;14.470;2023-03-24T00:39:50;24.88;;;11.57;;
67867;SDS011;54672;46.096;14.470;2023-03-24T00:42:15;22.42;;;11.02;;
67867;SDS011;54672;46.096;14.470;2023-03-24T00:44:41;22.55;;;11.50;;
67867;SDS011;54672;46.096;14.470;2023-03-24T00:47:08;22.02;;;11.55;;
67867;SDS011;54672;46.096;14.470;2023-03-24T00:49:35;24.77;;;12.20;;
67867;SDS011;54672;46.096;14.470;2023-03-24T00:52:14;23.45;;;11.60;;
67867;SDS011;54672;46.096;14.470;2023-03-24T00:54:42;22.30;;;10.30;;
67867;SDS011;54672;46.096;14.470;2023-03-24T00:57:10;21.00;;;10.40;;
67867;SDS011;54672;46.096;14.470;2023-03-24T00:59:45;20.58;;;10.27;;
67867;SDS011;54672;46.096;14.470;2023-03-24T01:02:15;20.73;;;10.48;;
67867;SDS011;54672;46.096;14.470;2023-03-24T01:04:43;21.17;;;10.30;;
67867;SDS011;54672;46.096;14.470;2023-03-24T01:07:14;22.45;;;10.10;;
67867;SDS011;54672;46.096;14.470;2023-03-24T01:09:42;19.30;;;10.52;;
67867;SDS011;54672;46.096;14.470;2023-03-24T01:12:10;15.68;;;9.30;;
67867;SDS011;54672;46.096;14.470;2023-03-24T01:14:36;21.70;;;9.57;;
67867;SDS011;54672;46.096;14.470;2023-03-24T01:17:01;18.20;;;10.02;;
67867;SDS011;54672;46.096;14.470;2023-03-24T01:19:27;19.92;;;10.35;;
67867;SDS011;54672;46.096;14.470;2023-03-24T01:21:53;20.60;;;9.65;;
67867;SDS011;54672;46.096;14.470;2023-03-24T01:24:19;24.20;;;10.85;;
67867;SDS011;54672;46.096;14.470;2023-03-24T01:26:49;21.52;;;10.75;;
67867;SDS011;54672;46.096;14.470;2023-03-24T01:29:15;22.08;;;10.25;;
67867;SDS011;54672;46.096;14.470;2023-03-24T01:31:40;21.00;;;10.18;;
67867;SDS011;54672;46.096;14.470;2023-03-24T01:34:05;20.35;;;10.32;;
67867;SDS011;54672;46.096;14.470;2023-03-24T01:36:31;18.88;;;10.35;;
67867;SDS011;54672;46.096;14.470;2023-03-24T01:38:57;20.00;;;10.13;;
67867;SDS011;54672;46.096;14.470;2023-03-24T01:41:26;22.20;;;10.50;;
67867;SDS011;54672;46.096;14.470;2023-03-24T01:43:58;21.33;;;10.18;;
67867;SDS011;54672;46.096;14.470;2023-03-24T01:46:23;22.23;;;10.73;;
67867;SDS011;54672;46.096;14.470;2023-03-24T01:48:52;20.92;;;9.85;;
67867;SDS011;54672;46.096;14.470;2023-03-24T01:51:31;18.02;;;9.60;;
67867;SDS011;54672;46.096;14.470;2023-03-24T01:54:09;19.75;;;10.48;;
67867;SDS011;54672;46.096;14.470;2023-03-24T01:56:40;20.58;;;10.13;;
67867;SDS011;54672;46.096;14.470;2023-03-24T01:59:11;20.63;;;10.13;;
67867;SDS011;54672;46.096;14.470;2023-03-24T02:01:39;21.75;;;10.05;;
67867;SDS011;54672;46.096;14.470;2023-03-24T02:04:05;19.23;;;10.27;;
67867;SDS011;54672;46.096;14.470;2023-03-24T02:06:33;19.52;;;10.60;;
67867;SDS011;54672;46.096;14.470;2023-03-24T02:09:05;16.52;;;9.32;;
67867;SDS011;54672;46.096;14.470;2023-03-24T02:11:31;19.85;;;9.68;;
67867;SDS011;54672;46.096;14.470;2023-03-24T02:13:58;17.67;;;9.35;;
67867;SDS011;54672;46.096;14.470;2023-03-24T02:35:57;13.68;;;7.28;;
67867;SDS011;54672;46.096;14.470;2023-03-24T02:46:32;14.05;;;7.43;;
67867;SDS011;54672;46.096;14.470;2023-03-24T02:51:51;13.32;;;7.07;;
67867;SDS011;54672;46.096;14.470;2023-03-24T02:57:09;12.40;;;6.40;;
67867;SDS011;54672;46.096;14.470;2023-03-24T03:02:16;14.93;;;8.15;;
67867;SDS011;54672;46.096;14.470;2023-03-24T03:04:53;14.77;;;8.38;;
67867;SDS011;54672;46.096;14.470;2023-03-24T03:07:25;17.10;;;9.15;;
67867;SDS011;54672;46.096;14.470;2023-03-24T03:09:58;17.50;;;8.80;;
67867;SDS011;54672;46.096;14.470;2023-03-24T03:12:26;18.42;;;8.38;;
67867;SDS011;54672;46.096;14.470;2023-03-24T03:14:59;16.17;;;8.65;;
67867;SDS011;54672;46.096;14.470;2023-03-24T03:17:34;17.30;;;8.57;;
67867;SDS011;54672;46.096;14.470;2023-03-24T03:20:06;17.65;;;8.43;;
67867;SDS011;54672;46.096;14.470;2023-03-24T03:22:38;15.85;;;8.20;;
67867;SDS011;54672;46.096;14.470;2023-03-24T03:25:15;15.25;;;8.68;;
67867;SDS011;54672;46.096;14.470;2023-03-24T03:30:14;19.30;;;8.90;;
67867;SDS011;54672;46.096;14.470;2023-03-24T03:32:51;16.60;;;8.98;;
67867;SDS011;54672;46.096;14.470;2023-03-24T03:35:23;15.90;;;8.73;;
67867;SDS011;54672;46.096;14.470;2023-03-24T03:40:51;16.50;;;8.50;;
67867;SDS011;54672;46.096;14.470;2023-03-24T03:43:19;18.60;;;8.95;;
67867;SDS011;54672;46.096;14.470;2023-03-24T03:45:46;17.95;;;9.25;;
67867;SDS011;54672;46.096;14.470;2023-03-24T03:48:12;20.55;;;9.68;;
67867;SDS011;54672;46.096;14.470;2023-03-24T03:50:38;17.10;;;9.40;;
67867;SDS011;54672;46.096;14.470;2023-03-24T03:53:04;20.38;;;9.70;;
67867;SDS011;54672;46.096;14.470;2023-03-24T03:55:31;17.35;;;8.85;;
67867;SDS011;54672;46.096;14.470;2023-03-24T03:57:58;17.55;;;9.32;;
67867;SDS011;54672;46.096;14.470;2023-03-24T04:00:24;18.15;;;9.82;;
67867;SDS011;54672;46.096;14.470;2023-03-24T04:02:56;18.63;;;8.73;;
67867;SDS011;54672;46.096;14.470;2023-03-24T04:05:46;14.05;;;7.97;;
67867;SDS011;54672;46.096;14.470;2023-03-24T04:16:21;18.13;;;8.80;;
67867;SDS011;54672;46.096;14.470;2023-03-24T04:19:07;14.50;;;7.70;;
67867;SDS011;54672;46.096;14.470;2023-03-24T04:21:45;18.63;;;8.60;;
67867;SDS011;54672;46.096;14.470;2023-03-24T04:35:12;17.40;;;8.75;;
67867;SDS011;54672;46.096;14.470;2023-03-24T04:37:50;20.95;;;7.93;;
67867;SDS011;54672;46.096;14.470;2023-03-24T04:40:17;18.70;;;8.35;;
67867;SDS011;54672;46.096;14.470;2023-03-24T04:42:47;19.08;;;8.48;;
67867;SDS011;54672;46.096;14.470;2023-03-24T04:45:16;17.70;;;8.63;;
67867;SDS011;54672;46.096;14.470;2023-03-24T04:47:44;20.27;;;8.85;;
67867;SDS011;54672;46.096;14.470;2023-03-24T04:50:13;14.43;;;8.80;;
67867;SDS011;54672;46.096;14.470;2023-03-24T04:52:54;17.95;;;9.45;;
67867;SDS011;54672;46.096;14.470;2023-03-24T04:58:10;18.02;;;8.73;;
67867;SDS011;54672;46.096;14.470;2023-03-24T05:00:35;18.23;;;9.32;;
67867;SDS011;54672;46.096;14.470;2023-03-24T05:03:01;16.90;;;8.55;;
67867;SDS011;54672;46.096;14.470;2023-03-24T05:05:27;19.48;;;9.07;;
67867;SDS011;54672;46.096;14.470;2023-03-24T05:07:52;19.83;;;8.85;;
67867;SDS011;54672;46.096;14.470;2023-03-24T05:10:18;24.27;;;8.75;;
67867;SDS011;54672;46.096;14.470;2023-03-24T05:12:44;17.52;;;8.25;;
67867;SDS011;54672;46.096;14.470;2023-03-24T05:15:10;18.92;;;9.35;;
67867;SDS011;54672;46.096;14.470;2023-03-24T05:17:36;15.55;;;8.88;;
67867;SDS011;54672;46.096;14.470;2023-03-24T05:20:02;17.35;;;8.85;;
67867;SDS011;54672;46.096;14.470;2023-03-24T05:22:31;18.17;;;9.15;;
67867;SDS011;54672;46.096;14.470;2023-03-24T05:24:56;20.15;;;9.25;;
67867;SDS011;54672;46.096;14.470;2023-03-24T05:27:22;18.15;;;9.25;;
67867;SDS011;54672;46.096;14.470;2023-03-24T05:29:47;17.73;;;9.70;;
67867;SDS011;54672;46.096;14.470;2023-03-24T05:32:12;16.05;;;9.23;;
67867;SDS011;54672;46.096;14.470;2023-03-24T05:34:38;18.52;;;9.82;;
67867;SDS011;54672;46.096;14.470;2023-03-24T05:37:04;18.38;;;9.30;;
67867;SDS011;54672;46.096;14.470;2023-03-24T05:39:30;19.83;;;10.45;;
67867;SDS011;54672;46.096;14.470;2023-03-24T05:41:56;23.42;;;10.40;;
67867;SDS011;54672;46.096;14.470;2023-03-24T05:44:21;17.73;;;10.02;;
67867;SDS011;54672;46.096;14.470;2023-03-24T05:46:47;17.33;;;9.82;;
67867;SDS011;54672;46.096;14.470;2023-03-24T05:49:12;23.27;;;10.70;;
67867;SDS011;54672;46.096;14.470;2023-03-24T05:51:39;19.33;;;10.00;;
67867;SDS011;54672;46.096;14.470;2023-03-24T05:54:04;17.38;;;9.38;;
67867;SDS011;54672;46.096;14.470;2023-03-24T05:56:30;23.38;;;11.65;;
67867;SDS011;54672;46.096;14.470;2023-03-24T05:58:56;23.00;;;11.40;;
67867;SDS011;54672;46.096;14.470;2023-03-24T06:01:22;24.83;;;12.65;;
67867;SDS011;54672;46.096;14.470;2023-03-24T06:03:49;29.75;;;15.95;;
67867;SDS011;54672;46.096;14.470;2023-03-24T06:06:14;24.02;;;12.55;;
67867;SDS011;54672;46.096;14.470;2023-03-24T06:08:41;20.73;;;11.18;;
67867;SDS011;54672;46.096;14.470;2023-03-24T06:11:09;21.42;;;10.27;;
67867;SDS011;54672;46.096;14.470;2023-03-24T06:13:35;17.77;;;9.25;;
67867;SDS011;54672;46.096;14.470;2023-03-24T06:16:01;13.70;;;8.35;;
67867;SDS011;54672;46.096;14.470;2023-03-24T06:18:27;19.38;;;8.80;;
67867;SDS011;54672;46.096;14.470;2023-03-24T06:20:54;15.23;;;8.95;;
67867;SDS011;54672;46.096;14.470;2023-03-24T06:23:21;17.50;;;9.85;;
67867;SDS011;54672;46.096;14.470;2023-03-24T06:25:48;16.27;;;9.18;;
67867;SDS011;54672;46.096;14.470;2023-03-24T06:28:14;16.52;;;9.20;;
67867;SDS011;54672;46.096;14.470;2023-03-24T06:30:44;19.00;;;9.85;;
67867;SDS011;54672;46.096;14.470;2023-03-24T06:33:11;16.10;;;9.02;;
67867;SDS011;54672;46.096;14.470;2023-03-24T06:35:38;15.57;;;8.07;;
67867;SDS011;54672;46.096;14.470;2023-03-24T06:38:04;17.95;;;9.25;;
67867;SDS011;54672;46.096;14.470;2023-03-24T06:40:31;17.33;;;9.40;;
67867;SDS011;54672;46.096;14.470;2023-03-24T06:42:56;19.27;;;9.63;;
67867;SDS011;54672;46.096;14.470;2023-03-24T06:45:22;18.83;;;10.48;;
67867;SDS011;54672;46.096;14.470;2023-03-24T06:47:47;18.90;;;9.88;;
67867;SDS011;54672;46.096;14.470;2023-03-24T06:50:13;16.05;;;9.70;;
67867;SDS011;54672;46.096;14.470;2023-03-24T06:52:38;17.77;;;9.43;;
67867;SDS011;54672;46.096;14.470;2023-03-24T06:55:05;18.20;;;9.73;;
67867;SDS011;54672;46.096;14.470;2023-03-24T06:57:32;18.20;;;9.35;;
67867;SDS011;54672;46.096;14.470;2023-03-24T06:59:57;16.67;;;9.10;;
67867;SDS011;54672;46.096;14.470;2023-03-24T07:02:23;17.98;;;9.43;;
67867;SDS011;54672;46.096;14.470;2023-03-24T07:04:48;13.98;;;7.53;;
67867;SDS011;54672;46.096;14.470;2023-03-24T07:07:14;14.57;;;7.53;;
67867;SDS011;54672;46.096;14.470;2023-03-24T07:09:41;13.63;;;7.18;;
67867;SDS011;54672;46.096;14.470;2023-03-24T07:12:07;14.00;;;7.05;;
67867;SDS011;54672;46.096;14.470;2023-03-24T07:14:33;12.60;;;6.88;;
67867;SDS011;54672;46.096;14.470;2023-03-24T07:16:58;9.88;;;5.68;;
67867;SDS011;54672;46.096;14.470;2023-03-24T07:19:24;9.13;;;5.95;;
67867;SDS011;54672;46.096;14.470;2023-03-24T07:21:50;11.10;;;5.75;;
67867;SDS011;54672;46.096;14.470;2023-03-24T07:24:15;9.50;;;5.63;;
67867;SDS011;54672;46.096;14.470;2023-03-24T07:26:42;13.82;;;5.90;;
67867;SDS011;54672;46.096;14.470;2023-03-24T07:29:07;13.93;;;7.03;;
67867;SDS011;54672;46.096;14.470;2023-03-24T07:31:33;19.00;;;7.40;;
67867;SDS011;54672;46.096;14.470;2023-03-24T07:34:02;15.18;;;7.40;;
67867;SDS011;54672;46.096;14.470;2023-03-24T07:36:29;12.88;;;6.35;;
67867;SDS011;54672;46.096;14.470;2023-03-24T07:38:54;14.80;;;7.65;;
67867;SDS011;54672;46.096;14.470;2023-03-24T07:41:20;17.00;;;6.47;;
67867;SDS011;54672;46.096;14.470;2023-03-24T07:43:46;11.32;;;6.07;;
67867;SDS011;54672;46.096;14.470;2023-03-24T07:46:11;10.45;;;5.65;;
67867;SDS011;54672;46.096;14.470;2023-03-24T07:48:37;9.02;;;5.40;;
67867;SDS011;54672;46.096;14.470;2023-03-24T07:51:02;11.27;;;5.78;;
67867;SDS011;54672;46.096;14.470;2023-03-24T07:53:28;8.80;;;4.90;;
67867;SDS011;54672;46.096;14.470;2023-03-24T07:55:54;8.32;;;5.25;;
67867;SDS011;54672;46.096;14.470;2023-03-24T07:58:19;9.35;;;5.25;;
67867;SDS011;54672;46.096;14.470;2023-03-24T08:00:45;7.00;;;4.50;;
67867;SDS011;54672;46.096;14.470;2023-03-24T08:03:11;7.93;;;5.00;;
67867;SDS011;54672;46.096;14.470;2023-03-24T08:05:39;9.00;;;5.10;;
67867;SDS011;54672;46.096;14.470;2023-03-24T08:08:05;6.80;;;5.07;;
67867;SDS011;54672;46.096;14.470;2023-03-24T08:10:31;7.57;;;5.00;;
67867;SDS011;54672;46.096;14.470;2023-03-24T08:12:57;7.78;;;4.40;;
67867;SDS011;54672;46.096;14.470;2023-03-24T08:15:23;7.60;;;4.60;;
67867;SDS011;54672;46.096;14.470;2023-03-24T08:17:51;7.38;;;5.40;;
67867;SDS011;54672;46.096;14.470;2023-03-24T08:20:17;7.80;;;4.90;;
67867;SDS011;54672;46.096;14.470;2023-03-24T08:22:45;8.40;;;4.82;;
67867;SDS011;54672;46.096;14.470;2023-03-24T08:25:14;10.07;;;5.38;;
67867;SDS011;54672;46.096;14.470;2023-03-24T08:27:41;9.02;;;4.70;;
67867;SDS011;54672;46.096;14.470;2023-03-24T08:30:20;7.07;;;4.55;;
67867;SDS011;54672;46.096;14.470;2023-03-24T08:32:49;9.38;;;5.10;;
67867;SDS011;54672;46.096;14.470;2023-03-24T08:35:17;9.55;;;5.50;;
67867;SDS011;54672;46.096;14.470;2023-03-24T08:37:44;9.93;;;4.65;;
67867;SDS011;54672;46.096;14.470;2023-03-24T08:40:11;8.13;;;4.43;;
67867;SDS011;54672;46.096;14.470;2023-03-24T08:42:42;8.40;;;3.90;;
67867;SDS011;54672;46.096;14.470;2023-03-24T08:45:09;9.02;;;4.10;;
67867;SDS011;54672;46.096;14.470;2023-03-24T08:47:37;5.85;;;3.58;;
67867;SDS011;54672;46.096;14.470;2023-03-24T08:50:03;6.65;;;4.53;;
67867;SDS011;54672;46.096;14.470;2023-03-24T08:52:31;7.80;;;4.57;;
67867;SDS011;54672;46.096;14.470;2023-03-24T08:54:56;8.25;;;4.43;;
67867;SDS011;54672;46.096;14.470;2023-03-24T08:57:22;8.20;;;3.92;;
67867;SDS011;54672;46.096;14.470;2023-03-24T08:59:47;9.45;;;3.72;;
67867;SDS011;54672;46.096;14.470;2023-03-24T09:02:12;7.25;;;4.30;;
67867;SDS011;54672;46.096;14.470;2023-03-24T09:04:38;6.10;;;3.63;;
67867;SDS011;54672;46.096;14.470;2023-03-24T09:07:04;5.80;;;3.30;;
67867;SDS011;54672;46.096;14.470;2023-03-24T09:09:30;6.03;;;3.42;;
67867;SDS011;54672;46.096;14.470;2023-03-24T09:11:55;6.60;;;3.88;;
67867;SDS011;54672;46.096;14.470;2023-03-24T09:14:21;9.68;;;3.90;;
67867;SDS011;54672;46.096;14.470;2023-03-24T09:16:47;7.18;;;3.88;;
67867;SDS011;54672;46.096;14.470;2023-03-24T09:19:14;7.15;;;3.33;;
67867;SDS011;54672;46.096;14.470;2023-03-24T09:21:43;7.32;;;3.10;;
67867;SDS011;54672;46.096;14.470;2023-03-24T09:24:10;6.55;;;2.92;;
67867;SDS011;54672;46.096;14.470;2023-03-24T09:26:39;5.72;;;3.28;;
67867;SDS011;54672;46.096;14.470;2023-03-24T09:29:05;5.30;;;3.08;;
67867;SDS011;54672;46.096;14.470;2023-03-24T09:31:31;4.28;;;2.42;;
67867;SDS011;54672;46.096;14.470;2023-03-24T09:33:56;5.43;;;3.13;;
67867;SDS011;54672;46.096;14.470;2023-03-24T09:36:21;4.30;;;2.80;;
67867;SDS011;54672;46.096;14.470;2023-03-24T09:38:47;4.35;;;2.90;;
67867;SDS011;54672;46.096;14.470;2023-03-24T09:41:17;4.20;;;2.60;;
67867;SDS011;54672;46.096;14.470;2023-03-24T09:43:51;5.60;;;2.70;;
67867;SDS011;54672;46.096;14.470;2023-03-24T09:46:25;4.70;;;2.80;;
67867;SDS011;54672;46.096;14.470;2023-03-24T09:48:57;4.63;;;2.50;;
67867;SDS011;54672;46.096;14.470;2023-03-24T09:51:38;4.45;;;2.83;;
67867;SDS011;54672;46.096;14.470;2023-03-24T09:56:32;4.50;;;2.70;;
67867;SDS011;54672;46.096;14.470;2023-03-24T09:59:05;5.57;;;2.50;;
67867;SDS011;54672;46.096;14.470;2023-03-24T10:01:36;6.55;;;2.65;;
67867;SDS011;54672;46.096;14.470;2023-03-24T10:04:02;4.43;;;2.50;;
67867;SDS011;54672;46.096;14.470;2023-03-24T10:06:37;4.80;;;2.60;;
67867;SDS011;54672;46.096;14.470;2023-03-24T10:14:39;3.65;;;2.40;;
67867;SDS011;54672;46.096;14.470;2023-03-24T10:22:47;6.47;;;2.90;;
67867;SDS011;54672;46.096;14.470;2023-03-24T10:28:36;5.10;;;2.70;;
67867;SDS011;54672;46.096;14.470;2023-03-24T10:31:12;6.45;;;3.45;;
67867;SDS011;54672;46.096;14.470;2023-03-24T10:33:43;4.97;;;3.23;;
67867;SDS011;54672;46.096;14.470;2023-03-24T10:38:37;4.65;;;3.20;;
67867;SDS011;54672;46.096;14.470;2023-03-24T10:41:03;4.82;;;2.70;;
67867;SDS011;54672;46.096;14.470;2023-03-24T10:43:29;7.80;;;3.15;;
67867;SDS011;54672;46.096;14.470;2023-03-24T10:45:56;7.10;;;3.22;;
67867;SDS011;54672;46.096;14.470;2023-03-24T10:50:58;7.55;;;3.47;;
67867;SDS011;54672;46.096;14.470;2023-03-24T10:53:24;6.18;;;3.13;;
67867;SDS011;54672;46.096;14.470;2023-03-24T10:55:49;5.93;;;3.22;;
67867;SDS011;54672;46.096;14.470;2023-03-24T10:58:19;4.07;;;2.83;;
67867;SDS011;54672;46.096;14.470;2023-03-24T11:00:49;4.03;;;2.78;;
67867;SDS011;54672;46.096;14.470;2023-03-24T11:03:15;4.88;;;3.33;;
67867;SDS011;54672;46.096;14.470;2023-03-24T11:05:56;5.53;;;3.03;;
67867;SDS011;54672;46.096;14.470;2023-03-24T11:10:56;5.32;;;3.25;;
67867;SDS011;54672;46.096;14.470;2023-03-24T11:19:00;11.05;;;3.30;;
67867;SDS011;54672;46.096;14.470;2023-03-24T11:21:25;6.63;;;3.30;;
67867;SDS011;54672;46.096;14.470;2023-03-24T11:23:58;5.63;;;3.20;;
67867;SDS011;54672;46.096;14.470;2023-03-24T11:26:32;7.60;;;3.30;;
67867;SDS011;54672;46.096;14.470;2023-03-24T11:29:02;4.78;;;3.40;;
67867;SDS011;54672;46.096;14.470;2023-03-24T11:31:34;5.72;;;3.50;;
67867;SDS011;54672;46.096;14.470;2023-03-24T11:42:57;5.00;;;3.30;;
67867;SDS011;54672;46.096;14.470;2023-03-24T11:45:29;5.05;;;3.63;;
67867;SDS011;54672;46.096;14.470;2023-03-24T11:48:01;8.88;;;4.25;;
67867;SDS011;54672;46.096;14.470;2023-03-24T11:50:46;8.70;;;3.58;;
67867;SDS011;54672;46.096;14.470;2023-03-24T12:06:02;5.90;;;2.78;;
67867;SDS011;54672;46.096;14.470;2023-03-24T12:14:49;5.35;;;3.15;;
67867;SDS011;54672;46.096;14.470;2023-03-24T12:31:01;5.20;;;2.40;;
67867;SDS011;54672;46.096;14.470;2023-03-24T12:39:11;4.30;;;2.78;;
67867;SDS011;54672;46.096;14.470;2023-03-24T12:50:23;4.70;;;2.78;;
67867;SDS011;54672;46.096;14.470;2023-03-24T13:01:05;4.93;;;2.78;;
67867;SDS011;54672;46.096;14.470;2023-03-24T13:06:22;6.22;;;3.28;;
67867;SDS011;54672;46.096;14.470;2023-03-24T13:14:30;5.18;;;2.83;;
67867;SDS011;54672;46.096;14.470;2023-03-24T13:17:06;6.47;;;3.20;;
67867;SDS011;54672;46.096;14.470;2023-03-24T13:19:41;6.50;;;3.08;;
67867;SDS011;54672;46.096;14.470;2023-03-24T13:22:10;5.78;;;2.95;;
67867;SDS011;54672;46.096;14.470;2023-03-24T13:24:40;6.30;;;3.10;;
67867;SDS011;54672;46.096;14.470;2023-03-24T13:27:13;4.95;;;3.15;;
67867;SDS011;54672;46.096;14.470;2023-03-24T13:37:28;5.15;;;3.30;;
67867;SDS011;54672;46.096;14.470;2023-03-24T13:42:31;6.20;;;3.10;;
67867;SDS011;54672;46.096;14.470;2023-03-24T13:45:06;4.53;;;3.00;;
67867;SDS011;54672;46.096;14.470;2023-03-24T13:47:49;6.00;;;3.80;;
67867;SDS011;54672;46.096;14.470;2023-03-24T13:50:20;10.27;;;4.18;;
67867;SDS011;54672;46.096;14.470;2023-03-24T13:52:47;6.72;;;3.95;;
67867;SDS011;54672;46.096;14.470;2023-03-24T13:58:46;7.88;;;4.40;;
67867;SDS011;54672;46.096;14.470;2023-03-24T14:05:59;10.48;;;5.45;;
67867;SDS011;54672;46.096;14.470;2023-03-24T14:09:03;9.63;;;5.78;;
67867;SDS011;54672;46.096;14.470;2023-03-24T14:21:50;10.90;;;6.50;;
67867;SDS011;54672;46.096;14.470;2023-03-24T14:24:25;11.15;;;5.85;;
67867;SDS011;54672;46.096;14.470;2023-03-24T14:26:52;9.95;;;6.38;;
67867;SDS011;54672;46.096;14.470;2023-03-24T14:32:04;10.00;;;5.70;;
67867;SDS011;54672;46.096;14.470;2023-03-24T14:34:30;9.57;;;5.68;;
67867;SDS011;54672;46.096;14.470;2023-03-24T14:37:00;11.80;;;5.65;;
67867;SDS011;54672;46.096;14.470;2023-03-24T14:39:35;9.82;;;5.78;;
67867;SDS011;54672;46.096;14.470;2023-03-24T14:44:59;11.68;;;5.85;;
67867;SDS011;54672;46.096;14.470;2023-03-24T14:47:31;8.57;;;4.82;;
67867;SDS011;54672;46.096;14.470;2023-03-24T14:50:08;9.55;;;5.90;;
67867;SDS011;54672;46.096;14.470;2023-03-24T14:52:47;9.02;;;5.55;;
67867;SDS011;54672;46.096;14.470;2023-03-24T14:55:15;9.88;;;5.35;;
67867;SDS011;54672;46.096;14.470;2023-03-24T14:57:44;10.85;;;5.63;;
67867;SDS011;54672;46.096;14.470;2023-03-24T15:02:45;13.20;;;6.00;;
67867;SDS011;54672;46.096;14.470;2023-03-24T15:08:04;12.57;;;7.13;;
67867;SDS011;54672;46.096;14.470;2023-03-24T15:10:53;12.82;;;6.57;;
67867;SDS011;54672;46.096;14.470;2023-03-24T15:16:05;12.60;;;6.85;;
67867;SDS011;54672;46.096;14.470;2023-03-24T15:18:32;13.55;;;7.57;;
67867;SDS011;54672;46.096;14.470;2023-03-24T15:20:58;15.55;;;8.10;;
67867;SDS011;54672;46.096;14.470;2023-03-24T15:23:25;14.65;;;7.78;;
67867;SDS011;54672;46.096;14.470;2023-03-24T15:25:55;14.70;;;8.15;;
67867;SDS011;54672;46.096;14.470;2023-03-24T15:28:28;13.23;;;8.13;;
67867;SDS011;54672;46.096;14.470;2023-03-24T15:30:55;14.52;;;8.15;;
67867;SDS011;54672;46.096;14.470;2023-03-24T15:33:23;12.77;;;7.50;;
67867;SDS011;54672;46.096;14.470;2023-03-24T15:35:54;18.38;;;9.50;;
67867;SDS011;54672;46.096;14.470;2023-03-24T15:38:27;19.20;;;9.75;;
67867;SDS011;54672;46.096;14.470;2023-03-24T15:40:59;18.17;;;9.90;;
67867;SDS011;54672;46.096;14.470;2023-03-24T15:43:26;15.55;;;9.50;;
67867;SDS011;54672;46.096;14.470;2023-03-24T15:45:53;21.05;;;9.15;;
67867;SDS011;54672;46.096;14.470;2023-03-24T15:48:20;18.35;;;9.60;;
67867;SDS011;54672;46.096;14.470;2023-03-24T15:53:28;17.90;;;10.88;;
67867;SDS011;54672;46.096;14.470;2023-03-24T15:56:02;18.98;;;11.00;;
67867;SDS011;54672;46.096;14.470;2023-03-24T15:58:30;21.80;;;11.52;;
67867;SDS011;54672;46.096;14.470;2023-03-24T16:01:09;20.60;;;11.30;;
67867;SDS011;54672;46.096;14.470;2023-03-24T16:03:38;24.55;;;12.15;;
67867;SDS011;54672;46.096;14.470;2023-03-24T16:06:11;20.70;;;10.88;;
67867;SDS011;54672;46.096;14.470;2023-03-24T16:08:40;21.23;;;11.67;;
67867;SDS011;54672;46.096;14.470;2023-03-24T16:11:08;22.15;;;12.05;;
67867;SDS011;54672;46.096;14.470;2023-03-24T16:13:38;22.98;;;12.20;;
67867;SDS011;54672;46.096;14.470;2023-03-24T16:18:38;23.70;;;11.75;;
67867;SDS011;54672;46.096;14.470;2023-03-24T16:21:15;22.58;;;12.20;;
67867;SDS011;54672;46.096;14.470;2023-03-24T16:23:43;24.90;;;12.45;;
67867;SDS011;54672;46.096;14.470;2023-03-24T16:26:17;22.70;;;12.18;;
67867;SDS011;54672;46.096;14.470;2023-03-24T16:28:44;26.20;;;13.00;;
67867;SDS011;54672;46.096;14.470;2023-03-24T16:31:25;23.40;;;12.85;;
67867;SDS011;54672;46.096;14.470;2023-03-24T16:33:55;22.70;;;11.85;;
67867;SDS011;54672;46.096;14.470;2023-03-24T16:36:21;21.60;;;11.93;;
67867;SDS011;54672;46.096;14.470;2023-03-24T16:38:50;25.65;;;11.77;;
67867;SDS011;54672;46.096;14.470;2023-03-24T16:41:16;21.70;;;10.63;;
67867;SDS011;54672;46.096;14.470;2023-03-24T16:43:42;22.85;;;12.00;;
67867;SDS011;54672;46.096;14.470;2023-03-24T16:46:16;23.77;;;12.30;;
67867;SDS011;54672;46.096;14.470;2023-03-24T16:48:45;18.65;;;10.80;;
67867;SDS011;54672;46.096;14.470;2023-03-24T16:51:11;21.33;;;11.50;;
67867;SDS011;54672;46.096;14.470;2023-03-24T16:53:39;19.70;;;10.90;;
67867;SDS011;54672;46.096;14.470;2023-03-24T16:56:05;22.42;;;9.98;;
67867;SDS011;54672;46.096;14.470;2023-03-24T16:58:31;17.70;;;10.27;;
67867;SDS011;54672;46.096;14.470;2023-03-24T17:00:56;20.33;;;10.68;;
67867;SDS011;54672;46.096;14.470;2023-03-24T17:03:23;21.30;;;10.73;;
67867;SDS011;54672;46.096;14.470;2023-03-24T17:05:49;17.95;;;9.68;;
67867;SDS011;54672;46.096;14.470;2023-03-24T17:08:15;18.10;;;10.38;;
67867;SDS011;54672;46.096;14.470;2023-03-24T17:10:44;17.67;;;10.32;;
67867;SDS011;54672;46.096;14.470;2023-03-24T17:13:15;20.60;;;10.93;;
67867;SDS011;54672;46.096;14.470;2023-03-24T17:15:45;19.95;;;10.82;;
67867;SDS011;54672;46.096;14.470;2023-03-24T17:18:10;19.67;;;10.10;;
67867;SDS011;54672;46.096;14.470;2023-03-24T17:20:37;18.63;;;10.68;;
67867;SDS011;54672;46.096;14.470;2023-03-24T17:23:04;29.30;;;11.63;;
67867;SDS011;54672;46.096;14.470;2023-03-24T17:25:31;21.95;;;11.20;;
67867;SDS011;54672;46.096;14.470;2023-03-24T17:27:57;20.60;;;11.52;;
67867;SDS011;54672;46.096;14.470;2023-03-24T17:30:23;24.77;;;11.95;;
67867;SDS011;54672;46.096;14.470;2023-03-24T17:32:50;19.33;;;10.73;;
67867;SDS011;54672;46.096;14.470;2023-03-24T17:35:17;22.17;;;12.13;;
67867;SDS011;54672;46.096;14.470;2023-03-24T17:37:44;26.60;;;12.40;;
67867;SDS011;54672;46.096;14.470;2023-03-24T17:40:10;23.70;;;12.05;;
67867;SDS011;54672;46.096;14.470;2023-03-24T17:42:38;25.85;;;12.90;;
67867;SDS011;54672;46.096;14.470;2023-03-24T17:45:06;22.63;;;12.60;;
67867;SDS011;54672;46.096;14.470;2023-03-24T17:47:33;23.80;;;11.32;;
67867;SDS011;54672;46.096;14.470;2023-03-24T17:49:59;21.20;;;11.95;;
67867;SDS011;54672;46.096;14.470;2023-03-24T17:52:25;21.40;;;11.45;;
67867;SDS011;54672;46.096;14.470;2023-03-24T17:54:50;28.65;;;12.52;;
67867;SDS011;54672;46.096;14.470;2023-03-24T17:57:16;21.15;;;11.85;;
67867;SDS011;54672;46.096;14.470;2023-03-24T17:59:42;21.13;;;12.05;;
67867;SDS011;54672;46.096;14.470;2023-03-24T18:02:09;25.45;;;12.48;;